sensor_id;sensor_type;location;lat;lon;timestamp;P1;durP1;ratioP1;P2;durP2;ratioP2
19537;SDS011;9914;51.008;4.300;2023-05-07T00:01:41;682.67;;;654.83;;
19537;SDS011;9914;51.008;4.300;2023-05-07T00:04:06;662.63;;;635.83;;
19537;SDS011;9914;51.008;4.300;2023-05-07T00:06:32;689.87;;;662.23;;
19537;SDS011;9914;51.008;4.300;2023-05-07T00:08:58;681.17;;;653.93;;
19537;SDS011;9914;51.008;4.300;2023-05-07T00:11:24;677.73;;;649.77;;
19537;SDS011;9914;51.008;4.300;2023-05-07T00:13:50;673.50;;;646.80;;
19537;SDS011;9914;51.008;4.300;2023-05-07T00:16:16;661.60;;;635.87;;
19537;SDS011;9914;51.008;4.300;2023-05-07T00:18:42;655.73;;;629.83;;
19537;SDS011;9914;51.008;4.300;2023-05-07T00:21:08;665.17;;;638.93;;
19537;SDS011;9914;51.008;4.300;2023-05-07T00:23:33;651.67;;;625.47;;
19537;SDS011;9914;51.008;4.300;2023-05-07T00:25:59;663.70;;;636.57;;
19537;SDS011;9914;51.008;4.300;2023-05-07T00:28:25;669.97;;;643.13;;
19537;SDS011;9914;51.008;4.300;2023-05-07T00:30:50;677.77;;;650.33;;
19537;SDS011;9914;51.008;4.300;2023-05-07T00:33:16;666.30;;;639.13;;
19537;SDS011;9914;51.008;4.300;2023-05-07T00:35:42;670.27;;;643.30;;
19537;SDS011;9914;51.008;4.300;2023-05-07T00:38:07;666.93;;;640.57;;
19537;SDS011;9914;51.008;4.300;2023-05-07T00:40:33;665.57;;;639.27;;
19537;SDS011;9914;51.008;4.300;2023-05-07T00:42:59;652.37;;;626.90;;
19537;SDS011;9914;51.008;4.300;2023-05-07T00:45:28;646.50;;;621.30;;
19537;SDS011;9914;51.008;4.300;2023-05-07T00:47:54;671.50;;;644.27;;
19537;SDS011;9914;51.008;4.300;2023-05-07T00:50:22;654.10;;;628.30;;
19537;SDS011;9914;51.008;4.300;2023-05-07T00:52:48;648.57;;;623.37;;
19537;SDS011;9914;51.008;4.300;2023-05-07T00:55:14;660.23;;;634.53;;
19537;SDS011;9914;51.008;4.300;2023-05-07T00:57:40;651.70;;;626.43;;
19537;SDS011;9914;51.008;4.300;2023-05-07T01:00:07;663.77;;;637.63;;
19537;SDS011;9914;51.008;4.300;2023-05-07T01:02:37;666.83;;;640.50;;
19537;SDS011;9914;51.008;4.300;2023-05-07T01:05:04;665.63;;;638.73;;
19537;SDS011;9914;51.008;4.300;2023-05-07T01:07:32;662.87;;;636.53;;
19537;SDS011;9914;51.008;4.300;2023-05-07T01:09:58;678.67;;;651.27;;
19537;SDS011;9914;51.008;4.300;2023-05-07T01:12:24;671.53;;;645.17;;
19537;SDS011;9914;51.008;4.300;2023-05-07T01:14:50;658.77;;;632.77;;
19537;SDS011;9914;51.008;4.300;2023-05-07T01:17:17;651.07;;;625.83;;
19537;SDS011;9914;51.008;4.300;2023-05-07T01:19:42;649.03;;;623.57;;
19537;SDS011;9914;51.008;4.300;2023-05-07T01:22:09;650.57;;;624.80;;
19537;SDS011;9914;51.008;4.300;2023-05-07T01:24:39;660.23;;;634.20;;
19537;SDS011;9914;51.008;4.300;2023-05-07T01:27:06;646.13;;;621.00;;
19537;SDS011;9914;51.008;4.300;2023-05-07T01:29:32;668.70;;;641.93;;
19537;SDS011;9914;51.008;4.300;2023-05-07T01:31:58;685.40;;;657.23;;
19537;SDS011;9914;51.008;4.300;2023-05-07T01:34:25;666.30;;;639.67;;
19537;SDS011;9914;51.008;4.300;2023-05-07T01:36:53;672.40;;;645.47;;
19537;SDS011;9914;51.008;4.300;2023-05-07T01:39:21;671.10;;;643.60;;
19537;SDS011;9914;51.008;4.300;2023-05-07T01:41:49;677.33;;;649.53;;
19537;SDS011;9914;51.008;4.300;2023-05-07T01:44:15;674.77;;;646.93;;
19537;SDS011;9914;51.008;4.300;2023-05-07T01:46:43;661.60;;;634.37;;
19537;SDS011;9914;51.008;4.300;2023-05-07T01:49:09;682.63;;;653.83;;
19537;SDS011;9914;51.008;4.300;2023-05-07T01:51:34;669.50;;;641.60;;
19537;SDS011;9914;51.008;4.300;2023-05-07T01:54:01;673.97;;;645.40;;
19537;SDS011;9914;51.008;4.300;2023-05-07T01:56:26;677.67;;;648.40;;
19537;SDS011;9914;51.008;4.300;2023-05-07T01:58:52;664.10;;;636.07;;
19537;SDS011;9914;51.008;4.300;2023-05-07T02:01:18;683.17;;;654.43;;
19537;SDS011;9914;51.008;4.300;2023-05-07T02:03:44;667.40;;;638.77;;
19537;SDS011;9914;51.008;4.300;2023-05-07T02:06:09;663.90;;;635.57;;
19537;SDS011;9914;51.008;4.300;2023-05-07T02:08:35;660.47;;;632.13;;
19537;SDS011;9914;51.008;4.300;2023-05-07T02:11:01;654.03;;;625.63;;
19537;SDS011;9914;51.008;4.300;2023-05-07T02:13:28;648.93;;;621.13;;
19537;SDS011;9914;51.008;4.300;2023-05-07T02:15:55;652.97;;;625.43;;
19537;SDS011;9914;51.008;4.300;2023-05-07T02:18:21;653.03;;;625.37;;
19537;SDS011;9914;51.008;4.300;2023-05-07T02:20:46;646.47;;;619.13;;
19537;SDS011;9914;51.008;4.300;2023-05-07T02:23:12;634.20;;;607.17;;
19537;SDS011;9914;51.008;4.300;2023-05-07T02:25:38;614.23;;;587.83;;
19537;SDS011;9914;51.008;4.300;2023-05-07T02:28:03;614.53;;;587.83;;
19537;SDS011;9914;51.008;4.300;2023-05-07T02:30:29;623.03;;;596.03;;
19537;SDS011;9914;51.008;4.300;2023-05-07T02:32:54;630.03;;;602.50;;
19537;SDS011;9914;51.008;4.300;2023-05-07T02:35:20;607.37;;;581.50;;
19537;SDS011;9914;51.008;4.300;2023-05-07T02:37:46;616.43;;;589.47;;
19537;SDS011;9914;51.008;4.300;2023-05-07T02:40:11;608.07;;;581.90;;
19537;SDS011;9914;51.008;4.300;2023-05-07T02:42:37;586.40;;;561.57;;
19537;SDS011;9914;51.008;4.300;2023-05-07T02:45:03;596.73;;;570.93;;
19537;SDS011;9914;51.008;4.300;2023-05-07T02:47:29;605.93;;;580.10;;
19537;SDS011;9914;51.008;4.300;2023-05-07T02:49:55;612.07;;;586.23;;
19537;SDS011;9914;51.008;4.300;2023-05-07T02:52:21;612.27;;;586.10;;
19537;SDS011;9914;51.008;4.300;2023-05-07T02:54:47;586.60;;;561.47;;
19537;SDS011;9914;51.008;4.300;2023-05-07T02:57:13;644.33;;;615.90;;
19537;SDS011;9914;51.008;4.300;2023-05-07T02:59:38;605.47;;;579.17;;
19537;SDS011;9914;51.008;4.300;2023-05-07T03:02:04;617.77;;;591.40;;
19537;SDS011;9914;51.008;4.300;2023-05-07T03:04:30;617.80;;;591.10;;
19537;SDS011;9914;51.008;4.300;2023-05-07T03:06:56;630.90;;;603.20;;
19537;SDS011;9914;51.008;4.300;2023-05-07T03:09:21;621.60;;;595.10;;
19537;SDS011;9914;51.008;4.300;2023-05-07T03:11:47;620.63;;;593.77;;
19537;SDS011;9914;51.008;4.300;2023-05-07T03:14:12;621.17;;;594.53;;
19537;SDS011;9914;51.008;4.300;2023-05-07T03:16:38;624.17;;;597.37;;
19537;SDS011;9914;51.008;4.300;2023-05-07T03:19:04;615.47;;;588.83;;
19537;SDS011;9914;51.008;4.300;2023-05-07T03:21:30;755.57;;;715.00;;
19537;SDS011;9914;51.008;4.300;2023-05-07T03:23:58;569.07;;;545.53;;
19537;SDS011;9914;51.008;4.300;2023-05-07T03:26:24;583.03;;;558.53;;
19537;SDS011;9914;51.008;4.300;2023-05-07T03:28:50;596.87;;;572.20;;
19537;SDS011;9914;51.008;4.300;2023-05-07T03:31:16;599.40;;;574.53;;
19537;SDS011;9914;51.008;4.300;2023-05-07T03:33:52;590.83;;;566.60;;
19537;SDS011;9914;51.008;4.300;2023-05-07T03:36:18;571.07;;;548.37;;
19537;SDS011;9914;51.008;4.300;2023-05-07T03:38:44;598.40;;;574.10;;
19537;SDS011;9914;51.008;4.300;2023-05-07T03:41:09;604.97;;;579.83;;
19537;SDS011;9914;51.008;4.300;2023-05-07T03:43:35;602.50;;;578.07;;
19537;SDS011;9914;51.008;4.300;2023-05-07T03:46:01;596.43;;;572.13;;
19537;SDS011;9914;51.008;4.300;2023-05-07T03:48:26;610.73;;;585.67;;
19537;SDS011;9914;51.008;4.300;2023-05-07T03:50:52;634.03;;;608.30;;
19537;SDS011;9914;51.008;4.300;2023-05-07T03:53:18;626.30;;;599.67;;
19537;SDS011;9914;51.008;4.300;2023-05-07T03:55:43;667.30;;;639.20;;
19537;SDS011;9914;51.008;4.300;2023-05-07T03:58:09;667.33;;;638.87;;
19537;SDS011;9914;51.008;4.300;2023-05-07T04:00:34;672.23;;;643.97;;
19537;SDS011;9914;51.008;4.300;2023-05-07T04:03:03;662.73;;;634.67;;
19537;SDS011;9914;51.008;4.300;2023-05-07T04:05:30;673.70;;;643.97;;
19537;SDS011;9914;51.008;4.300;2023-05-07T04:07:57;687.87;;;658.30;;
19537;SDS011;9914;51.008;4.300;2023-05-07T04:10:23;697.87;;;667.20;;
19537;SDS011;9914;51.008;4.300;2023-05-07T04:12:49;703.27;;;672.70;;
19537;SDS011;9914;51.008;4.300;2023-05-07T04:15:15;687.83;;;657.47;;
19537;SDS011;9914;51.008;4.300;2023-05-07T04:17:41;726.53;;;694.53;;
19537;SDS011;9914;51.008;4.300;2023-05-07T04:20:08;728.57;;;695.77;;
19537;SDS011;9914;51.008;4.300;2023-05-07T04:22:35;720.93;;;688.37;;
19537;SDS011;9914;51.008;4.300;2023-05-07T04:25:02;730.77;;;697.90;;
19537;SDS011;9914;51.008;4.300;2023-05-07T04:27:28;712.10;;;680.83;;
19537;SDS011;9914;51.008;4.300;2023-05-07T04:29:54;733.03;;;700.10;;
19537;SDS011;9914;51.008;4.300;2023-05-07T04:32:20;718.87;;;686.57;;
19537;SDS011;9914;51.008;4.300;2023-05-07T04:34:47;717.17;;;685.30;;
19537;SDS011;9914;51.008;4.300;2023-05-07T04:37:12;709.37;;;677.93;;
19537;SDS011;9914;51.008;4.300;2023-05-07T04:39:38;715.67;;;683.57;;
19537;SDS011;9914;51.008;4.300;2023-05-07T04:42:04;715.73;;;683.03;;
19537;SDS011;9914;51.008;4.300;2023-05-07T04:44:32;726.00;;;693.13;;
19537;SDS011;9914;51.008;4.300;2023-05-07T04:46:59;718.73;;;686.80;;
19537;SDS011;9914;51.008;4.300;2023-05-07T04:49:25;730.97;;;697.77;;
19537;SDS011;9914;51.008;4.300;2023-05-07T04:51:50;735.00;;;701.93;;
19537;SDS011;9914;51.008;4.300;2023-05-07T04:54:16;716.57;;;684.13;;
19537;SDS011;9914;51.008;4.300;2023-05-07T04:56:41;752.10;;;717.83;;
19537;SDS011;9914;51.008;4.300;2023-05-07T04:59:07;744.67;;;711.07;;
19537;SDS011;9914;51.008;4.300;2023-05-07T05:01:33;749.13;;;715.10;;
19537;SDS011;9914;51.008;4.300;2023-05-07T05:03:58;875.57;;;831.57;;
19537;SDS011;9914;51.008;4.300;2023-05-07T05:06:25;750.73;;;716.83;;
19537;SDS011;9914;51.008;4.300;2023-05-07T05:08:51;759.47;;;724.47;;
19537;SDS011;9914;51.008;4.300;2023-05-07T05:11:16;777.13;;;741.33;;
19537;SDS011;9914;51.008;4.300;2023-05-07T05:13:42;781.50;;;745.23;;
19537;SDS011;9914;51.008;4.300;2023-05-07T05:16:08;772.27;;;736.90;;
19537;SDS011;9914;51.008;4.300;2023-05-07T05:18:34;768.47;;;733.50;;
19537;SDS011;9914;51.008;4.300;2023-05-07T05:20:59;767.27;;;732.43;;
19537;SDS011;9914;51.008;4.300;2023-05-07T05:23:26;790.60;;;754.70;;
19537;SDS011;9914;51.008;4.300;2023-05-07T05:25:58;755.80;;;722.17;;
19537;SDS011;9914;51.008;4.300;2023-05-07T05:28:24;747.33;;;712.83;;
19537;SDS011;9914;51.008;4.300;2023-05-07T05:30:49;790.07;;;754.03;;
19537;SDS011;9914;51.008;4.300;2023-05-07T05:33:15;783.63;;;747.97;;
19537;SDS011;9914;51.008;4.300;2023-05-07T05:35:41;786.23;;;750.67;;
19537;SDS011;9914;51.008;4.300;2023-05-07T05:38:07;780.47;;;744.60;;
19537;SDS011;9914;51.008;4.300;2023-05-07T05:40:33;739.07;;;707.00;;
19537;SDS011;9914;51.008;4.300;2023-05-07T05:42:59;755.07;;;722.53;;
19537;SDS011;9914;51.008;4.300;2023-05-07T05:45:24;741.80;;;710.23;;
19537;SDS011;9914;51.008;4.300;2023-05-07T05:47:50;737.53;;;706.03;;
19537;SDS011;9914;51.008;4.300;2023-05-07T05:50:16;753.13;;;720.67;;
19537;SDS011;9914;51.008;4.300;2023-05-07T05:52:42;763.63;;;727.57;;
19537;SDS011;9914;51.008;4.300;2023-05-07T05:55:08;764.87;;;730.83;;
19537;SDS011;9914;51.008;4.300;2023-05-07T05:57:33;758.90;;;725.57;;
19537;SDS011;9914;51.008;4.300;2023-05-07T06:00:00;767.07;;;732.40;;
19537;SDS011;9914;51.008;4.300;2023-05-07T06:02:27;749.87;;;717.47;;
19537;SDS011;9914;51.008;4.300;2023-05-07T06:04:53;760.87;;;727.83;;
19537;SDS011;9914;51.008;4.300;2023-05-07T06:07:19;789.60;;;755.20;;
19537;SDS011;9914;51.008;4.300;2023-05-07T06:09:44;756.33;;;722.63;;
19537;SDS011;9914;51.008;4.300;2023-05-07T06:12:11;773.63;;;739.13;;
19537;SDS011;9914;51.008;4.300;2023-05-07T06:14:36;802.23;;;765.90;;
19537;SDS011;9914;51.008;4.300;2023-05-07T06:17:02;808.17;;;770.43;;
19537;SDS011;9914;51.008;4.300;2023-05-07T06:19:28;801.30;;;764.13;;
19537;SDS011;9914;51.008;4.300;2023-05-07T06:21:53;838.60;;;798.63;;
19537;SDS011;9914;51.008;4.300;2023-05-07T06:24:21;817.20;;;778.63;;
19537;SDS011;9914;51.008;4.300;2023-05-07T06:26:47;821.03;;;782.27;;
19537;SDS011;9914;51.008;4.300;2023-05-07T06:29:13;815.37;;;775.80;;
19537;SDS011;9914;51.008;4.300;2023-05-07T06:31:38;804.67;;;766.50;;
19537;SDS011;9914;51.008;4.300;2023-05-07T06:34:04;872.07;;;828.87;;
19537;SDS011;9914;51.008;4.300;2023-05-07T06:36:30;819.30;;;781.07;;
19537;SDS011;9914;51.008;4.300;2023-05-07T06:38:56;828.80;;;789.40;;
19537;SDS011;9914;51.008;4.300;2023-05-07T06:41:21;821.50;;;782.33;;
19537;SDS011;9914;51.008;4.300;2023-05-07T06:43:47;828.00;;;788.47;;
19537;SDS011;9914;51.008;4.300;2023-05-07T06:46:13;917.47;;;864.50;;
19537;SDS011;9914;51.008;4.300;2023-05-07T06:48:38;808.10;;;769.93;;
19537;SDS011;9914;51.008;4.300;2023-05-07T06:51:04;805.43;;;768.67;;
19537;SDS011;9914;51.008;4.300;2023-05-07T06:53:30;800.23;;;763.33;;
19537;SDS011;9914;51.008;4.300;2023-05-07T06:55:55;794.93;;;758.23;;
19537;SDS011;9914;51.008;4.300;2023-05-07T06:58:22;810.80;;;772.63;;
19537;SDS011;9914;51.008;4.300;2023-05-07T07:00:47;792.03;;;756.13;;
19537;SDS011;9914;51.008;4.300;2023-05-07T07:03:13;779.43;;;744.93;;
19537;SDS011;9914;51.008;4.300;2023-05-07T07:05:42;778.43;;;743.77;;
19537;SDS011;9914;51.008;4.300;2023-05-07T07:08:08;768.00;;;733.60;;
19537;SDS011;9914;51.008;4.300;2023-05-07T07:10:34;750.40;;;717.87;;
19537;SDS011;9914;51.008;4.300;2023-05-07T07:13:00;870.17;;;822.67;;
19537;SDS011;9914;51.008;4.300;2023-05-07T07:15:26;763.13;;;730.20;;
19537;SDS011;9914;51.008;4.300;2023-05-07T07:17:51;754.87;;;721.53;;
19537;SDS011;9914;51.008;4.300;2023-05-07T07:20:18;799.67;;;757.83;;
19537;SDS011;9914;51.008;4.300;2023-05-07T07:22:44;738.83;;;706.57;;
19537;SDS011;9914;51.008;4.300;2023-05-07T07:25:10;831.87;;;792.60;;
19537;SDS011;9914;51.008;4.300;2023-05-07T07:27:36;735.80;;;704.43;;
19537;SDS011;9914;51.008;4.300;2023-05-07T07:30:03;749.37;;;717.07;;
19537;SDS011;9914;51.008;4.300;2023-05-07T07:32:29;746.00;;;713.53;;
19537;SDS011;9914;51.008;4.300;2023-05-07T07:34:54;841.50;;;800.57;;
19537;SDS011;9914;51.008;4.300;2023-05-07T07:37:20;726.10;;;694.57;;
19537;SDS011;9914;51.008;4.300;2023-05-07T07:39:46;718.00;;;687.90;;
19537;SDS011;9914;51.008;4.300;2023-05-07T07:42:11;720.33;;;690.00;;
19537;SDS011;9914;51.008;4.300;2023-05-07T07:44:37;702.37;;;672.57;;
19537;SDS011;9914;51.008;4.300;2023-05-07T07:47:04;689.90;;;660.53;;
19537;SDS011;9914;51.008;4.300;2023-05-07T07:49:30;732.30;;;698.90;;
19537;SDS011;9914;51.008;4.300;2023-05-07T07:51:56;685.10;;;655.90;;
19537;SDS011;9914;51.008;4.300;2023-05-07T07:54:24;706.20;;;675.97;;
19537;SDS011;9914;51.008;4.300;2023-05-07T07:56:50;707.37;;;677.93;;
19537;SDS011;9914;51.008;4.300;2023-05-07T07:59:15;676.77;;;648.80;;
19537;SDS011;9914;51.008;4.300;2023-05-07T08:01:43;714.87;;;683.83;;
19537;SDS011;9914;51.008;4.300;2023-05-07T08:04:09;686.93;;;658.47;;
19537;SDS011;9914;51.008;4.300;2023-05-07T08:06:35;687.17;;;658.33;;
19537;SDS011;9914;51.008;4.300;2023-05-07T08:09:01;738.97;;;705.70;;
19537;SDS011;9914;51.008;4.300;2023-05-07T08:11:27;667.93;;;640.50;;
19537;SDS011;9914;51.008;4.300;2023-05-07T08:13:53;686.80;;;657.87;;
19537;SDS011;9914;51.008;4.300;2023-05-07T08:16:19;669.60;;;642.03;;
19537;SDS011;9914;51.008;4.300;2023-05-07T08:18:45;740.27;;;705.90;;
19537;SDS011;9914;51.008;4.300;2023-05-07T08:21:11;677.60;;;649.77;;
19537;SDS011;9914;51.008;4.300;2023-05-07T08:23:37;707.23;;;675.37;;
19537;SDS011;9914;51.008;4.300;2023-05-07T08:26:02;644.27;;;617.50;;
19537;SDS011;9914;51.008;4.300;2023-05-07T08:28:28;672.93;;;643.63;;
19537;SDS011;9914;51.008;4.300;2023-05-07T08:30:54;638.87;;;612.73;;
19537;SDS011;9914;51.008;4.300;2023-05-07T08:33:21;758.87;;;719.30;;
19537;SDS011;9914;51.008;4.300;2023-05-07T08:35:47;649.53;;;622.30;;
19537;SDS011;9914;51.008;4.300;2023-05-07T08:38:13;621.80;;;596.67;;
19537;SDS011;9914;51.008;4.300;2023-05-07T08:40:39;618.67;;;593.27;;
19537;SDS011;9914;51.008;4.300;2023-05-07T08:43:06;614.97;;;589.37;;
19537;SDS011;9914;51.008;4.300;2023-05-07T08:45:32;619.47;;;594.33;;
19537;SDS011;9914;51.008;4.300;2023-05-07T08:47:59;615.53;;;590.70;;
19537;SDS011;9914;51.008;4.300;2023-05-07T08:50:28;628.30;;;602.83;;
19537;SDS011;9914;51.008;4.300;2023-05-07T08:52:54;614.43;;;589.50;;
19537;SDS011;9914;51.008;4.300;2023-05-07T08:55:21;605.57;;;580.77;;
19537;SDS011;9914;51.008;4.300;2023-05-07T08:57:48;770.37;;;725.33;;
19537;SDS011;9914;51.008;4.300;2023-05-07T09:00:15;584.73;;;561.77;;
19537;SDS011;9914;51.008;4.300;2023-05-07T09:02:40;564.30;;;541.63;;
19537;SDS011;9914;51.008;4.300;2023-05-07T09:05:06;558.83;;;536.57;;
19537;SDS011;9914;51.008;4.300;2023-05-07T09:07:33;630.30;;;601.93;;
19537;SDS011;9914;51.008;4.300;2023-05-07T09:10:00;654.17;;;622.23;;
19537;SDS011;9914;51.008;4.300;2023-05-07T09:12:30;572.80;;;549.70;;
19537;SDS011;9914;51.008;4.300;2023-05-07T09:14:56;592.87;;;569.00;;
19537;SDS011;9914;51.008;4.300;2023-05-07T09:17:21;693.53;;;657.93;;
19537;SDS011;9914;51.008;4.300;2023-05-07T09:19:47;569.40;;;546.33;;
19537;SDS011;9914;51.008;4.300;2023-05-07T09:22:13;569.67;;;546.87;;
19537;SDS011;9914;51.008;4.300;2023-05-07T09:24:39;570.20;;;546.80;;
19537;SDS011;9914;51.008;4.300;2023-05-07T09:27:05;545.33;;;523.83;;
19537;SDS011;9914;51.008;4.300;2023-05-07T09:29:31;659.33;;;627.37;;
19537;SDS011;9914;51.008;4.300;2023-05-07T09:32:06;582.20;;;558.70;;
19537;SDS011;9914;51.008;4.300;2023-05-07T09:34:33;538.60;;;517.47;;
19537;SDS011;9914;51.008;4.300;2023-05-07T09:37:02;553.00;;;530.93;;
19537;SDS011;9914;51.008;4.300;2023-05-07T09:39:39;699.70;;;663.27;;
19537;SDS011;9914;51.008;4.300;2023-05-07T09:42:12;560.87;;;538.77;;
19537;SDS011;9914;51.008;4.300;2023-05-07T09:44:39;546.73;;;525.30;;
19537;SDS011;9914;51.008;4.300;2023-05-07T09:47:06;572.90;;;549.73;;
19537;SDS011;9914;51.008;4.300;2023-05-07T09:49:36;532.33;;;511.07;;
19537;SDS011;9914;51.008;4.300;2023-05-07T09:52:04;513.90;;;494.37;;
19537;SDS011;9914;51.008;4.300;2023-05-07T09:54:32;524.90;;;504.83;;
19537;SDS011;9914;51.008;4.300;2023-05-07T09:56:58;541.03;;;520.03;;
19537;SDS011;9914;51.008;4.300;2023-05-07T09:59:27;646.73;;;614.57;;
19537;SDS011;9914;51.008;4.300;2023-05-07T10:01:55;538.93;;;517.60;;
19537;SDS011;9914;51.008;4.300;2023-05-07T10:04:23;523.37;;;502.97;;
19537;SDS011;9914;51.008;4.300;2023-05-07T10:06:50;600.27;;;573.60;;
19537;SDS011;9914;51.008;4.300;2023-05-07T10:09:16;612.13;;;583.87;;
19537;SDS011;9914;51.008;4.300;2023-05-07T10:11:42;541.57;;;520.07;;
19537;SDS011;9914;51.008;4.300;2023-05-07T10:14:08;521.63;;;501.23;;
19537;SDS011;9914;51.008;4.300;2023-05-07T10:16:35;614.97;;;584.60;;
19537;SDS011;9914;51.008;4.300;2023-05-07T10:19:02;515.47;;;495.53;;
19537;SDS011;9914;51.008;4.300;2023-05-07T10:21:29;513.60;;;493.90;;
19537;SDS011;9914;51.008;4.300;2023-05-07T10:24:03;495.23;;;476.43;;
19537;SDS011;9914;51.008;4.300;2023-05-07T10:26:31;553.97;;;530.13;;
19537;SDS011;9914;51.008;4.300;2023-05-07T10:28:59;589.23;;;561.17;;
19537;SDS011;9914;51.008;4.300;2023-05-07T10:31:50;606.93;;;580.50;;
19537;SDS011;9914;51.008;4.300;2023-05-07T10:34:29;520.40;;;500.30;;
19537;SDS011;9914;51.008;4.300;2023-05-07T10:37:01;491.67;;;473.03;;
19537;SDS011;9914;51.008;4.300;2023-05-07T10:39:27;481.33;;;463.10;;
19537;SDS011;9914;51.008;4.300;2023-05-07T10:41:53;648.03;;;615.60;;
19537;SDS011;9914;51.008;4.300;2023-05-07T10:44:28;507.67;;;488.20;;
19537;SDS011;9914;51.008;4.300;2023-05-07T10:47:05;503.23;;;483.53;;
19537;SDS011;9914;51.008;4.300;2023-05-07T10:49:32;500.43;;;480.87;;
19537;SDS011;9914;51.008;4.300;2023-05-07T10:54:43;447.87;;;430.87;;
19537;SDS011;9914;51.008;4.300;2023-05-07T10:59:58;343.27;;;331.17;;
19537;SDS011;9914;51.008;4.300;2023-05-07T11:02:23;349.60;;;337.20;;
19537;SDS011;9914;51.008;4.300;2023-05-07T11:05:25;386.90;;;372.40;;
19537;SDS011;9914;51.008;4.300;2023-05-07T11:07:58;335.47;;;323.37;;
19537;SDS011;9914;51.008;4.300;2023-05-07T11:13:43;343.80;;;331.20;;
19537;SDS011;9914;51.008;4.300;2023-05-07T11:16:22;320.70;;;309.03;;
19537;SDS011;9914;51.008;4.300;2023-05-07T11:18:50;345.67;;;333.20;;
19537;SDS011;9914;51.008;4.300;2023-05-07T11:24:03;366.50;;;353.40;;
19537;SDS011;9914;51.008;4.300;2023-05-07T11:26:31;373.57;;;359.83;;
19537;SDS011;9914;51.008;4.300;2023-05-07T11:29:12;322.83;;;311.17;;
19537;SDS011;9914;51.008;4.300;2023-05-07T11:31:39;329.93;;;318.13;;
19537;SDS011;9914;51.008;4.300;2023-05-07T11:34:05;309.33;;;298.23;;
19537;SDS011;9914;51.008;4.300;2023-05-07T11:36:32;432.83;;;414.93;;
19537;SDS011;9914;51.008;4.300;2023-05-07T11:38:58;307.90;;;296.80;;
19537;SDS011;9914;51.008;4.300;2023-05-07T11:41:34;302.50;;;291.50;;
19537;SDS011;9914;51.008;4.300;2023-05-07T11:44:01;317.50;;;305.97;;
19537;SDS011;9914;51.008;4.300;2023-05-07T11:46:28;270.13;;;260.40;;
19537;SDS011;9914;51.008;4.300;2023-05-07T11:48:54;285.57;;;275.40;;
19537;SDS011;9914;51.008;4.300;2023-05-07T11:51:21;250.63;;;241.83;;
19537;SDS011;9914;51.008;4.300;2023-05-07T11:53:50;455.97;;;435.30;;
19537;SDS011;9914;51.008;4.300;2023-05-07T11:56:17;326.60;;;313.80;;
19537;SDS011;9914;51.008;4.300;2023-05-07T11:58:43;267.30;;;257.80;;
19537;SDS011;9914;51.008;4.300;2023-05-07T12:01:12;293.97;;;283.50;;
19537;SDS011;9914;51.008;4.300;2023-05-07T12:03:41;382.77;;;367.23;;
19537;SDS011;9914;51.008;4.300;2023-05-07T12:06:10;277.07;;;267.23;;
19537;SDS011;9914;51.008;4.300;2023-05-07T12:08:40;275.43;;;265.63;;
19537;SDS011;9914;51.008;4.300;2023-05-07T12:11:07;402.63;;;385.70;;
19537;SDS011;9914;51.008;4.300;2023-05-07T12:13:34;264.23;;;254.93;;
19537;SDS011;9914;51.008;4.300;2023-05-07T12:16:00;259.87;;;250.73;;
19537;SDS011;9914;51.008;4.300;2023-05-07T12:18:28;320.20;;;308.43;;
19537;SDS011;9914;51.008;4.300;2023-05-07T12:20:55;430.27;;;413.40;;
19537;SDS011;9914;51.008;4.300;2023-05-07T12:23:21;306.53;;;295.10;;
19537;SDS011;9914;51.008;4.300;2023-05-07T12:25:47;268.27;;;258.80;;
19537;SDS011;9914;51.008;4.300;2023-05-07T12:28:13;274.37;;;264.77;;
19537;SDS011;9914;51.008;4.300;2023-05-07T12:30:40;286.00;;;275.30;;
19537;SDS011;9914;51.008;4.300;2023-05-07T12:33:07;269.47;;;259.77;;
19537;SDS011;9914;51.008;4.300;2023-05-07T12:35:38;271.03;;;261.43;;
19537;SDS011;9914;51.008;4.300;2023-05-07T12:38:13;265.87;;;256.27;;
19537;SDS011;9914;51.008;4.300;2023-05-07T12:43:26;494.23;;;470.80;;
19537;SDS011;9914;51.008;4.300;2023-05-07T12:45:55;293.67;;;283.17;;
19537;SDS011;9914;51.008;4.300;2023-05-07T12:48:22;282.70;;;272.60;;
19537;SDS011;9914;51.008;4.300;2023-05-07T12:50:49;412.20;;;393.90;;
19537;SDS011;9914;51.008;4.300;2023-05-07T12:53:15;259.23;;;249.93;;
19537;SDS011;9914;51.008;4.300;2023-05-07T12:55:42;415.47;;;396.77;;
19537;SDS011;9914;51.008;4.300;2023-05-07T12:58:24;252.80;;;243.87;;
19537;SDS011;9914;51.008;4.300;2023-05-07T13:00:54;282.70;;;272.47;;
19537;SDS011;9914;51.008;4.300;2023-05-07T13:03:24;288.53;;;278.20;;
19537;SDS011;9914;51.008;4.300;2023-05-07T13:05:55;405.10;;;387.10;;
19537;SDS011;9914;51.008;4.300;2023-05-07T13:08:23;281.80;;;271.67;;
19537;SDS011;9914;51.008;4.300;2023-05-07T13:10:53;377.63;;;361.83;;
19537;SDS011;9914;51.008;4.300;2023-05-07T13:13:19;335.03;;;322.73;;
19537;SDS011;9914;51.008;4.300;2023-05-07T13:15:46;305.23;;;294.13;;
19537;SDS011;9914;51.008;4.300;2023-05-07T13:18:12;279.70;;;269.90;;
19537;SDS011;9914;51.008;4.300;2023-05-07T13:20:38;341.83;;;328.47;;
19537;SDS011;9914;51.008;4.300;2023-05-07T13:23:03;253.13;;;244.13;;
19537;SDS011;9914;51.008;4.300;2023-05-07T13:25:29;311.80;;;299.93;;
19537;SDS011;9914;51.008;4.300;2023-05-07T13:27:59;232.73;;;224.33;;
19537;SDS011;9914;51.008;4.300;2023-05-07T13:30:25;273.43;;;263.20;;
19537;SDS011;9914;51.008;4.300;2023-05-07T13:32:51;276.53;;;266.13;;
19537;SDS011;9914;51.008;4.300;2023-05-07T13:35:20;360.23;;;345.40;;
19537;SDS011;9914;51.008;4.300;2023-05-07T13:37:46;248.63;;;239.87;;
19537;SDS011;9914;51.008;4.300;2023-05-07T13:40:13;479.60;;;458.10;;
19537;SDS011;9914;51.008;4.300;2023-05-07T13:42:38;380.60;;;365.17;;
19537;SDS011;9914;51.008;4.300;2023-05-07T13:45:04;214.53;;;207.03;;
19537;SDS011;9914;51.008;4.300;2023-05-07T13:47:31;188.53;;;181.93;;
19537;SDS011;9914;51.008;4.300;2023-05-07T13:49:56;337.67;;;325.20;;
19537;SDS011;9914;51.008;4.300;2023-05-07T13:52:22;231.70;;;223.57;;
19537;SDS011;9914;51.008;4.300;2023-05-07T13:54:47;240.00;;;231.27;;
19537;SDS011;9914;51.008;4.300;2023-05-07T13:57:13;249.60;;;240.73;;
19537;SDS011;9914;51.008;4.300;2023-05-07T13:59:40;243.40;;;234.73;;
19537;SDS011;9914;51.008;4.300;2023-05-07T14:02:06;244.03;;;235.40;;
19537;SDS011;9914;51.008;4.300;2023-05-07T14:04:32;285.73;;;275.03;;
19537;SDS011;9914;51.008;4.300;2023-05-07T14:06:57;246.63;;;237.93;;
19537;SDS011;9914;51.008;4.300;2023-05-07T14:09:23;250.97;;;242.03;;
19537;SDS011;9914;51.008;4.300;2023-05-07T14:11:48;290.27;;;279.73;;
19537;SDS011;9914;51.008;4.300;2023-05-07T14:14:16;313.13;;;301.43;;
19537;SDS011;9914;51.008;4.300;2023-05-07T14:16:43;289.80;;;279.50;;
19537;SDS011;9914;51.008;4.300;2023-05-07T14:19:08;285.23;;;274.63;;
19537;SDS011;9914;51.008;4.300;2023-05-07T14:21:35;365.37;;;350.47;;